Long Beach /Daugherty Field/ Airport
KLGB : now visible

Airfield :











YOU CAN JOIN US ON...

 
LOGIN :

Register | Disclaimer

   EN    FR    IT 

 









Legend :    VFR   Marginal VFR   IFR   Intensive IFR   Very Intensive IFR
Visi :
Ceiling :
>= 8 km
>= 3000ft
5 to 8 km
1000 to 3000 ft
1500m to 5 km
500 to 1000 ft
800 to 1500m
200 to 500 ft
< 800m
< 200 ft
Symbols :   Thunderstorms  Fog  Heavy snow  Heavy precipitations  Wind > 20 kt






- Airport Elevation : 60 ft
- IATA code : LGB


KLGB - Long Beach /Daugherty Field/

CURRENT METAR :
  • 042153Z 21006KT 10SM CLR 23/16 A2996 RMK AO2 SLP145 T02330161

EXPIRED METARs :
  • 042053Z VRB05KT 10SM FEW019 23/16 A2997 RMK AO2 SLP149 T02330161 58006
  • 042041Z VRB04KT 10SM FEW019 23/16 A2998 RMK AO2 T02280161
  • 041953Z VRB04KT 10SM OVC018 22/17 A2999 RMK AO2 SLP155 T02170167

TAF KLGB
Valid from the 04 at 20:00 until the 05 at 18:00 UTC


042010Z 0420/0518 VRB04KT P6SM BKN018
FM042100 19008KT P6SM SCT020
FM042300 29008KT P6SM SKC
FM050600 16006KT P6SM OVC010
FM051000 14006KT P6SM OVC014
KZLA FIR / North America



MET'MAP, your aeronautical weather chart ! - Copyright ORBIFLY December 2007 - Disclaimer

ORBIFLY MET'MAP TEAM :

Programming & Development : Alexandra Zaïnal
Concept & original design : Baudouin d'Aumeries
Assistance for programming : Marc-Olivier Méhu
Technical & hardware support : Manuel Goepfert

Contact : metmap@orbifly.com




SOURCES & CREDITS :

   NOAA       Earth
Advisory